Terminal Aerodrome Forecast
Issued by NWS Shreveport, LA

Home | Current Version | Previous Version | Text Only | Print | Product List | Glossary On
Versions: 1 2 3 4 5 6 7 8 9 10 11 12 13 14 15
000
FTUS44 KSHV 240522
TAFLFK
TAF
KLFK 240522Z 2406/2506 10004KT P6SM SKC
     FM241400 16008KT P6SM SKC
     FM241900 17012G18KT P6SM SKC
     FM250100 17010KT P6SM BKN020
      TEMPO 2503/2506 OVC010=

USA.gov is the U.S. government's official web portal to all federal, state and local government web resources and services.